Terminal Aerodrome Forecast
Issued by NWS Sterling, VA

Home | Current Version | Previous Version | Text Only | Print | Product List | Glossary On
Versions: 1 2 3 4 5 6 7 8 9 10 11 12 13 14 15 16 17 18 19 20 21
322
FTUS41 KLWX 230540
TAFBWI
TAF
KBWI 230540Z 2306/2412 22004KT P6SM SCT150 BKN250
     FM230900 22005KT P6SM -SHRA BKN070
     FM231200 22011KT P6SM -SHRA BKN015 OVC050
     FM231500 23012G20KT P6SM BKN025 OVC050
     FM231700 23012G22KT P6SM BKN040 OVC070
     FM240300 23009KT P6SM -SHRA SCT050 BKN070
     FM240900 22008KT 6SM SHRA OVC025=

USA.gov is the U.S. government's official web portal to all federal, state and local government web resources and services.